createdAt,value
2023-04-15T00:00:13.622Z,62.61
2023-04-15T00:01:13.636Z,62.54
2023-04-15T00:02:13.684Z,62.50
2023-04-15T00:03:13.771Z,62.48
2023-04-15T00:04:13.717Z,62.48
2023-04-15T00:05:13.658Z,62.40
2023-04-15T00:06:13.679Z,62.23
2023-04-15T00:07:13.669Z,62.16
2023-04-15T00:08:13.664Z,62.84
2023-04-15T00:09:13.666Z,62.47
2023-04-15T00:10:13.684Z,62.08
2023-04-15T00:11:13.710Z,62.44
2023-04-15T00:12:13.720Z,63.19
2023-04-15T00:13:13.726Z,63.20
2023-04-15T00:14:13.702Z,62.71
2023-04-15T00:15:13.706Z,62.26
2023-04-15T00:16:13.718Z,63.32
2023-04-15T00:17:13.725Z,62.88
2023-04-15T00:18:13.722Z,62.62
2023-04-15T00:19:13.727Z,63.32
2023-04-15T00:20:13.728Z,63.13
2023-04-15T00:21:13.746Z,63.26
2023-04-15T00:22:13.808Z,62.99
2023-04-15T00:23:13.757Z,63.58
2023-04-15T00:24:13.762Z,63.49
2023-04-15T00:25:13.762Z,63.16
2023-04-15T00:26:13.764Z,62.93
2023-04-15T00:27:13.851Z,62.88
2023-04-15T00:28:13.770Z,62.79
2023-04-15T00:29:13.785Z,62.48
2023-04-15T00:30:13.838Z,62.43
2023-04-15T00:31:13.911Z,62.60
2023-04-15T00:32:13.989Z,62.71
2023-04-15T00:33:14.015Z,62.63
2023-04-15T00:34:14.080Z,62.54
2023-04-15T00:35:14.111Z,62.33
2023-04-15T00:36:14.178Z,62.33
2023-04-15T00:37:14.263Z,62.20
2023-04-15T00:38:14.299Z,62.25
2023-04-15T00:39:14.338Z,62.34
2023-04-15T00:40:14.358Z,62.54
2023-04-15T00:41:14.376Z,62.49
2023-04-15T00:42:14.417Z,62.63
2023-04-15T00:43:14.519Z,62.74
2023-04-15T00:44:14.523Z,62.52
2023-04-15T00:45:14.484Z,62.62
2023-04-15T00:46:14.553Z,62.69
2023-04-15T00:47:14.508Z,62.59
2023-04-15T00:48:14.533Z,62.65
2023-04-15T00:49:14.548Z,62.72
2023-04-15T00:50:14.555Z,62.72
2023-04-15T00:51:14.596Z,62.60
2023-04-15T00:52:14.607Z,62.82
2023-04-15T00:53:14.637Z,62.90
2023-04-15T00:54:14.654Z,62.76
2023-04-15T00:55:14.687Z,62.66
2023-04-15T00:56:14.714Z,62.99
2023-04-15T00:57:14.729Z,62.79
2023-04-15T00:58:14.742Z,62.79
2023-04-15T00:59:14.788Z,62.66
2023-04-15T01:00:14.782Z,62.61
2023-04-15T01:01:14.867Z,62.93
2023-04-15T01:02:14.970Z,62.63
2023-04-15T01:03:14.932Z,62.92
2023-04-15T01:04:14.920Z,62.88
2023-04-15T01:05:14.904Z,62.83
2023-04-15T01:06:14.933Z,62.60
2023-04-15T01:07:14.970Z,62.63
2023-04-15T01:08:15.013Z,62.53
2023-04-15T01:09:15.043Z,62.43
2023-04-15T01:10:15.045Z,62.26
2023-04-15T01:11:15.057Z,62.15
2023-04-15T01:12:15.072Z,62.23
2023-04-15T01:13:15.102Z,62.13
2023-04-15T01:14:15.121Z,61.99
2023-04-15T01:15:15.149Z,62.00
2023-04-15T01:16:15.176Z,62.49
2023-04-15T01:17:15.155Z,62.32
2023-04-15T01:18:15.170Z,62.66
2023-04-15T01:19:15.205Z,62.88
2023-04-15T01:20:15.212Z,62.50
2023-04-15T01:21:15.244Z,62.91
2023-04-15T01:22:15.276Z,62.74
2023-04-15T01:23:15.271Z,62.67
2023-04-15T01:24:15.284Z,62.54
2023-04-15T01:25:15.319Z,62.44
2023-04-15T01:26:15.314Z,62.79
2023-04-15T01:27:15.329Z,62.66
2023-04-15T01:28:15.348Z,62.77
2023-04-15T01:29:15.364Z,62.66
2023-04-15T01:30:15.384Z,62.66
2023-04-15T01:31:15.466Z,62.74
2023-04-15T01:32:15.410Z,62.53
2023-04-15T01:33:15.444Z,62.67
2023-04-15T01:34:15.468Z,62.60
2023-04-15T01:35:15.512Z,62.66
2023-04-15T01:36:15.533Z,62.62
2023-04-15T01:37:15.574Z,62.60
2023-04-15T01:38:15.621Z,62.73
2023-04-15T01:39:15.630Z,62.70
2023-04-15T01:40:15.659Z,62.58
2023-04-15T01:41:15.680Z,62.56
2023-04-15T01:42:15.715Z,62.66
2023-04-15T01:43:15.745Z,62.72
2023-04-15T01:44:15.788Z,62.83
2023-04-15T01:45:16.708Z,62.49
2023-04-15T01:46:15.903Z,62.57
2023-04-15T01:47:15.903Z,63.07
2023-04-15T01:48:15.931Z,62.85
2023-04-15T01:49:15.986Z,62.96
2023-04-15T01:50:16.075Z,62.84
2023-04-15T01:51:16.150Z,62.87
2023-04-15T01:52:16.229Z,63.37
2023-04-15T01:53:16.309Z,66.32
2023-04-15T01:54:16.361Z,65.62
2023-04-15T01:55:16.435Z,64.99
2023-04-15T01:56:16.958Z,64.77
2023-04-15T01:57:16.521Z,65.00
2023-04-15T01:58:16.571Z,64.60
2023-04-15T01:59:16.634Z,64.45
2023-04-15T02:00:16.694Z,64.45
2023-04-15T02:01:16.829Z,64.56
2023-04-15T02:02:16.820Z,64.51
2023-04-15T02:03:17.014Z,64.28
2023-04-15T02:04:16.950Z,64.21
2023-04-15T02:05:16.997Z,63.81
2023-04-15T02:06:17.072Z,64.60
2023-04-15T02:07:17.141Z,64.77
2023-04-15T02:08:17.203Z,65.10
2023-04-15T02:09:17.234Z,64.28
2023-04-15T02:10:17.272Z,64.29
2023-04-15T02:11:17.319Z,64.20
2023-04-15T02:12:17.364Z,64.02
2023-04-15T02:13:17.387Z,63.78
2023-04-15T02:14:17.434Z,63.63
2023-04-15T02:15:17.476Z,63.44
2023-04-15T02:16:17.619Z,63.42
2023-04-15T02:17:17.599Z,63.42
2023-04-15T02:18:17.628Z,63.33
2023-04-15T02:19:17.713Z,63.31
2023-04-15T02:20:17.721Z,63.33
2023-04-15T02:21:17.758Z,63.56
2023-04-15T02:22:17.794Z,63.33
2023-04-15T02:23:17.815Z,63.24
2023-04-15T02:24:17.905Z,63.14
2023-04-15T02:25:17.900Z,63.07
2023-04-15T02:26:17.925Z,62.83
2023-04-15T02:27:17.957Z,62.86
2023-04-15T02:28:17.989Z,63.28
2023-04-15T02:29:18.024Z,62.85
2023-04-15T02:30:18.077Z,63.03
2023-04-15T02:31:18.174Z,63.60
2023-04-15T02:32:18.265Z,63.79
2023-04-15T02:33:18.307Z,63.66
2023-04-15T02:34:18.391Z,63.75
2023-04-15T02:35:18.473Z,63.63
2023-04-15T02:36:18.537Z,63.70
2023-04-15T02:37:18.618Z,64.02
2023-04-15T02:38:18.699Z,64.13
2023-04-15T02:39:18.787Z,64.20
2023-04-15T02:40:18.922Z,64.33
2023-04-15T02:41:18.955Z,64.07
2023-04-15T02:42:19.019Z,64.17
2023-04-15T02:43:19.109Z,64.45
2023-04-15T02:44:19.174Z,64.21
2023-04-15T02:45:19.190Z,65.56
2023-04-15T02:46:19.310Z,64.79
2023-04-15T02:47:19.360Z,64.72
2023-04-15T02:48:19.464Z,64.74
2023-04-15T02:49:19.521Z,64.77
2023-04-15T02:50:19.604Z,64.81
2023-04-15T02:51:19.720Z,64.98
2023-04-15T02:52:20.720Z,64.80
2023-04-15T02:53:19.861Z,64.88
2023-04-15T02:54:19.881Z,64.69
2023-04-15T02:55:19.987Z,65.08
2023-04-15T02:56:20.057Z,64.75
2023-04-15T02:57:20.072Z,64.54
2023-04-15T02:58:20.728Z,64.76
2023-04-15T02:59:20.159Z,64.74
2023-04-15T03:00:20.195Z,64.54
2023-04-15T03:01:20.316Z,64.48
2023-04-15T03:02:20.354Z,64.53
2023-04-15T03:03:20.450Z,64.42
2023-04-15T03:04:20.445Z,64.37
2023-04-15T03:05:20.376Z,64.35
2023-04-15T03:06:20.394Z,64.27
2023-04-15T03:07:20.436Z,64.30
2023-04-15T03:08:20.438Z,64.36
2023-04-15T03:09:20.459Z,64.23
2023-04-15T03:10:20.496Z,64.04
2023-04-15T03:11:20.532Z,64.23
2023-04-15T03:12:20.590Z,64.11
2023-04-15T03:13:20.659Z,64.18
2023-04-15T03:14:20.723Z,64.08
2023-04-15T03:15:20.798Z,64.22
2023-04-15T03:16:20.918Z,64.14
2023-04-15T03:17:20.974Z,64.10
2023-04-15T03:18:21.024Z,64.10
2023-04-15T03:19:21.101Z,64.14
2023-04-15T03:20:21.269Z,64.88
2023-04-15T03:21:21.269Z,65.86
2023-04-15T03:22:21.356Z,65.00
2023-04-15T03:23:21.455Z,65.00
2023-04-15T03:24:21.504Z,64.66
2023-04-15T03:25:21.575Z,64.62
2023-04-15T03:26:21.633Z,64.49
2023-04-15T03:27:21.729Z,64.41
2023-04-15T03:28:21.789Z,64.47
2023-04-15T03:29:21.849Z,64.61
2023-04-15T03:30:21.923Z,64.32
2023-04-15T03:31:22.246Z,64.50
2023-04-15T03:32:22.078Z,64.34
2023-04-15T03:33:22.110Z,64.57
2023-04-15T03:34:22.186Z,64.37
2023-04-15T03:35:22.289Z,64.48
2023-04-15T03:36:22.306Z,64.52
2023-04-15T03:37:22.353Z,64.45
2023-04-15T03:38:22.405Z,64.50
2023-04-15T03:39:22.474Z,64.44
2023-04-15T03:40:22.536Z,64.55
2023-04-15T03:41:22.533Z,64.53
2023-04-15T03:42:22.560Z,64.55
2023-04-15T03:43:22.597Z,64.60
2023-04-15T03:44:22.600Z,64.59
2023-04-15T03:45:22.638Z,64.58
2023-04-15T03:46:22.689Z,64.45
2023-04-15T03:47:22.721Z,64.47
2023-04-15T03:48:22.834Z,64.34
2023-04-15T03:49:22.759Z,64.14
2023-04-15T03:50:22.815Z,64.07
2023-04-15T03:51:22.857Z,64.24
2023-04-15T03:52:22.931Z,64.12
2023-04-15T03:53:22.966Z,64.09
2023-04-15T03:54:22.994Z,64.36
2023-04-15T03:55:23.045Z,64.20
2023-04-15T03:56:23.044Z,64.12
2023-04-15T03:57:23.092Z,64.15
2023-04-15T03:58:23.141Z,64.05
2023-04-15T03:59:23.173Z,64.17
2023-04-15T04:00:23.228Z,63.98
2023-04-15T04:01:23.273Z,64.07
2023-04-15T04:02:23.625Z,64.06
2023-04-15T04:03:23.493Z,64.12
2023-04-15T04:04:23.613Z,64.10
2023-04-15T04:05:23.450Z,64.08
2023-04-15T04:06:23.487Z,64.04
2023-04-15T04:07:23.504Z,64.23
2023-04-15T04:08:23.518Z,64.56
2023-04-15T04:09:23.539Z,64.31
2023-04-15T04:10:23.571Z,64.15
2023-04-15T04:11:23.639Z,64.70
2023-04-15T04:12:23.614Z,64.57
2023-04-15T04:13:23.665Z,64.46
2023-04-15T04:14:23.704Z,64.36
2023-04-15T04:15:23.772Z,64.35
2023-04-15T04:16:23.859Z,64.43
2023-04-15T04:17:23.868Z,64.34
2023-04-15T04:18:23.864Z,64.38
2023-04-15T04:19:23.903Z,64.52
2023-04-15T04:20:23.939Z,64.35
2023-04-15T04:21:23.982Z,64.40
2023-04-15T04:22:24.013Z,64.25
2023-04-15T04:23:24.054Z,64.13
2023-04-15T04:24:24.093Z,64.35
2023-04-15T04:25:24.154Z,64.38
2023-04-15T04:26:24.190Z,64.14
2023-04-15T04:27:24.264Z,64.07
2023-04-15T04:28:24.293Z,63.94
2023-04-15T04:29:24.340Z,63.83
2023-04-15T04:30:24.399Z,63.81
2023-04-15T04:31:24.496Z,63.76
2023-04-15T04:32:24.563Z,63.77
2023-04-15T04:33:24.573Z,63.91
2023-04-15T04:34:24.631Z,63.89
2023-04-15T04:35:24.686Z,63.87
2023-04-15T04:36:24.732Z,64.18
2023-04-15T04:37:24.771Z,64.20
2023-04-15T04:38:24.806Z,64.09
2023-04-15T04:39:24.866Z,64.90
2023-04-15T04:40:24.931Z,64.34
2023-04-15T04:41:24.958Z,64.23
2023-04-15T04:42:25.015Z,63.62
2023-04-15T04:43:25.108Z,63.89
2023-04-15T04:44:25.148Z,63.92
2023-04-15T04:45:25.230Z,63.58
2023-04-15T04:46:25.280Z,63.68
2023-04-15T04:47:25.369Z,63.55
2023-04-15T04:48:25.406Z,64.14
2023-04-15T04:49:25.462Z,64.14
2023-04-15T04:50:25.549Z,64.00
2023-04-15T04:51:25.624Z,63.95
2023-04-15T04:52:25.716Z,64.10
2023-04-15T04:53:25.783Z,64.20
2023-04-15T04:54:25.855Z,64.14
2023-04-15T04:55:25.953Z,64.01
2023-04-15T04:56:26.025Z,64.24
2023-04-15T04:57:26.105Z,64.15
2023-04-15T04:58:26.155Z,64.00
2023-04-15T04:59:26.253Z,63.81
2023-04-15T05:00:26.303Z,63.78
2023-04-15T05:01:26.358Z,64.34
2023-04-15T05:02:26.557Z,64.74
2023-04-15T05:03:26.616Z,64.05
2023-04-15T05:04:26.569Z,63.88
2023-04-15T05:05:26.651Z,64.01
2023-04-15T05:06:26.714Z,63.96
2023-04-15T05:07:26.792Z,63.84
2023-04-15T05:08:26.829Z,63.83
2023-04-15T05:09:26.886Z,63.95
2023-04-15T05:10:26.937Z,64.00
2023-04-15T05:11:26.992Z,64.03
2023-04-15T05:12:27.040Z,63.87
2023-04-15T05:13:27.074Z,63.91
2023-04-15T05:14:27.108Z,63.87
2023-04-15T05:15:27.146Z,63.86
2023-04-15T05:16:27.141Z,63.74
2023-04-15T05:17:27.242Z,63.61
2023-04-15T05:18:27.231Z,63.70
2023-04-15T05:19:27.283Z,63.67
2023-04-15T05:20:27.329Z,63.77
2023-04-15T05:21:27.362Z,63.66
2023-04-15T05:22:27.396Z,63.82
2023-04-15T05:23:27.424Z,63.76
2023-04-15T05:24:27.472Z,64.37
2023-04-15T05:25:27.511Z,63.86
2023-04-15T05:26:27.593Z,63.88
2023-04-15T05:27:27.600Z,63.83
2023-04-15T05:28:27.648Z,63.64
2023-04-15T05:29:27.690Z,63.63
2023-04-15T05:30:27.731Z,63.56
2023-04-15T05:31:28.028Z,63.55
2023-04-15T05:32:27.891Z,63.63
2023-04-15T05:33:27.901Z,63.53
2023-04-15T05:34:27.950Z,63.53
2023-04-15T05:35:27.983Z,63.74
2023-04-15T05:36:28.004Z,63.63
2023-04-15T05:37:28.032Z,64.04
2023-04-15T05:38:28.051Z,63.82
2023-04-15T05:39:28.069Z,63.43
2023-04-15T05:40:28.111Z,63.43
2023-04-15T05:41:28.111Z,63.16
2023-04-15T05:42:28.122Z,63.00
2023-04-15T05:43:28.138Z,62.87
2023-04-15T05:44:28.167Z,63.15
2023-04-15T05:45:28.190Z,63.05
2023-04-15T05:46:28.260Z,63.29
2023-04-15T05:47:28.287Z,63.01
2023-04-15T05:48:29.263Z,63.02
2023-04-15T05:49:28.299Z,62.99
2023-04-15T05:50:28.321Z,63.01
2023-04-15T05:51:28.328Z,63.13
2023-04-15T05:52:28.344Z,63.09
2023-04-15T05:53:28.379Z,63.82
2023-04-15T05:54:28.369Z,63.81
2023-04-15T05:55:28.383Z,63.58
2023-04-15T05:56:28.398Z,63.35
2023-04-15T05:57:28.415Z,63.28
2023-04-15T05:58:28.429Z,63.37
2023-04-15T05:59:28.473Z,64.32
2023-04-15T06:00:28.514Z,63.88
2023-04-15T06:01:28.674Z,63.59
2023-04-15T06:02:28.627Z,63.84
2023-04-15T06:03:28.704Z,63.68
2023-04-15T06:04:28.833Z,63.47
2023-04-15T06:05:28.658Z,62.99
2023-04-15T06:06:28.675Z,62.52
2023-04-15T06:07:28.711Z,62.68
2023-04-15T06:08:28.769Z,62.40
2023-04-15T06:09:28.853Z,62.92
2023-04-15T06:10:29.014Z,63.35
2023-04-15T06:11:28.953Z,62.54
2023-04-15T06:12:29.009Z,62.42
2023-04-15T06:13:29.070Z,62.17
2023-04-15T06:14:29.120Z,61.11
2023-04-15T06:15:29.171Z,60.73
2023-04-15T06:16:29.227Z,60.99
2023-04-15T06:17:29.347Z,60.86
2023-04-15T06:18:29.321Z,61.38
2023-04-15T06:19:29.983Z,59.75
2023-04-15T06:20:29.466Z,59.48
2023-04-15T06:21:29.519Z,59.79
2023-04-15T06:22:29.629Z,60.44
2023-04-15T06:23:29.616Z,60.47
2023-04-15T06:24:29.656Z,58.90
2023-04-15T06:25:29.696Z,59.24
2023-04-15T06:26:29.722Z,58.37
2023-04-15T06:27:29.764Z,58.49
2023-04-15T06:28:29.787Z,58.17
2023-04-15T06:29:29.804Z,58.48
2023-04-15T06:30:29.840Z,57.97
2023-04-15T06:31:29.926Z,57.66
2023-04-15T06:32:29.970Z,58.21
2023-04-15T06:33:29.972Z,58.18
2023-04-15T06:34:29.994Z,57.91
2023-04-15T06:35:30.061Z,58.11
2023-04-15T06:36:30.063Z,57.91
2023-04-15T06:37:30.061Z,57.84
2023-04-15T06:38:30.075Z,57.11
2023-04-15T06:39:30.086Z,55.97
2023-04-15T06:40:30.115Z,55.50
2023-04-15T06:41:30.135Z,55.26
2023-04-15T06:42:30.150Z,55.40
2023-04-15T06:43:30.162Z,54.74
2023-04-15T06:44:31.577Z,54.21
2023-04-15T06:45:30.198Z,54.06
2023-04-15T06:46:30.133Z,55.00
2023-04-15T06:47:30.141Z,54.77
2023-04-15T06:48:30.110Z,55.02
2023-04-15T06:49:30.087Z,56.01
2023-04-15T06:50:30.080Z,54.43
2023-04-15T06:51:30.085Z,53.29
2023-04-15T06:52:30.050Z,53.26
2023-04-15T06:53:30.071Z,53.27
2023-04-15T06:54:30.027Z,52.67
2023-04-15T06:55:30.022Z,52.56
2023-04-15T06:56:30.020Z,52.05
2023-04-15T06:57:31.563Z,52.22
2023-04-15T06:58:29.980Z,52.26
2023-04-15T06:59:29.972Z,51.88
2023-04-15T07:00:30.003Z,51.79
2023-04-15T07:01:30.076Z,52.19
2023-04-15T07:02:30.261Z,52.06
2023-04-15T07:03:32.569Z,52.62
2023-04-15T07:04:29.998Z,51.98
2023-04-15T07:05:29.902Z,53.25
2023-04-15T07:06:29.890Z,54.34
2023-04-15T07:07:29.900Z,53.83
2023-04-15T07:08:29.858Z,52.14
2023-04-15T07:09:29.874Z,52.71
2023-04-15T07:10:29.830Z,52.31
2023-04-15T07:11:29.815Z,52.55
2023-04-15T07:12:29.820Z,52.26
2023-04-15T07:13:29.785Z,52.71
2023-04-15T07:14:29.773Z,53.33
2023-04-15T07:15:29.773Z,53.85
2023-04-15T07:16:30.013Z,52.50
2023-04-15T07:17:29.745Z,52.28
2023-04-15T07:18:29.706Z,52.35
2023-04-15T07:19:29.683Z,51.17
2023-04-15T07:20:29.705Z,51.18
2023-04-15T07:21:29.661Z,51.77
2023-04-15T07:22:29.646Z,51.50
2023-04-15T07:23:29.657Z,50.93
2023-04-15T07:24:29.618Z,51.01
2023-04-15T07:25:29.608Z,50.77
2023-04-15T07:26:29.581Z,50.71
2023-04-15T07:27:29.572Z,51.79
2023-04-15T07:28:29.543Z,50.43
2023-04-15T07:29:29.536Z,50.40
2023-04-15T07:30:29.522Z,50.10
2023-04-15T07:31:29.589Z,51.45
2023-04-15T07:32:29.526Z,49.35
2023-04-15T07:33:29.482Z,49.27
2023-04-15T07:34:31.447Z,48.99
2023-04-15T07:35:29.462Z,48.67
2023-04-15T07:36:29.443Z,49.59
2023-04-15T07:37:29.420Z,49.85
2023-04-15T07:38:29.415Z,50.13
2023-04-15T07:39:29.425Z,48.93
2023-04-15T07:40:29.402Z,48.45
2023-04-15T07:41:29.375Z,47.37
2023-04-15T07:42:29.387Z,47.42
2023-04-15T07:43:29.368Z,46.90
2023-04-15T07:44:29.355Z,47.23
2023-04-15T07:45:29.351Z,46.36
2023-04-15T07:46:29.381Z,46.36
2023-04-15T07:47:29.374Z,47.11
2023-04-15T07:48:29.346Z,46.97
2023-04-15T07:49:29.327Z,47.24
2023-04-15T07:50:29.318Z,46.83
2023-04-15T07:51:29.310Z,46.78
2023-04-15T07:52:29.301Z,46.91
2023-04-15T07:53:29.288Z,47.01
2023-04-15T07:54:29.292Z,47.29
2023-04-15T07:55:29.297Z,46.86
2023-04-15T07:56:29.269Z,47.16
2023-04-15T07:57:29.271Z,46.55
2023-04-15T07:58:29.266Z,46.32
2023-04-15T07:59:29.254Z,46.20
2023-04-15T08:00:29.223Z,46.46
2023-04-15T08:01:29.213Z,46.76
2023-04-15T08:02:29.349Z,46.53
2023-04-15T08:03:29.418Z,46.69
2023-04-15T08:04:29.277Z,46.36
2023-04-15T08:05:29.120Z,46.96
2023-04-15T08:06:29.116Z,46.97
2023-04-15T08:07:29.080Z,47.40
2023-04-15T08:08:29.063Z,47.37
2023-04-15T08:09:29.025Z,47.48
2023-04-15T08:10:29.000Z,47.94
2023-04-15T08:11:29.008Z,48.48
2023-04-15T08:12:28.979Z,47.53
2023-04-15T08:13:28.920Z,46.58
2023-04-15T08:14:28.916Z,45.77
2023-04-15T08:15:28.925Z,45.88
2023-04-15T08:16:28.959Z,45.67
2023-04-15T08:17:28.971Z,45.51
2023-04-15T08:18:28.905Z,45.38
2023-04-15T08:19:28.891Z,44.47
2023-04-15T08:20:28.917Z,45.72
2023-04-15T08:21:28.965Z,44.69
2023-04-15T08:22:29.058Z,44.24
2023-04-15T08:23:29.045Z,44.94
2023-04-15T08:24:29.049Z,44.38
2023-04-15T08:25:29.066Z,44.24
2023-04-15T08:26:29.059Z,44.77
2023-04-15T08:27:29.066Z,44.81
2023-04-15T08:28:29.030Z,44.34
2023-04-15T08:29:29.022Z,44.67
2023-04-15T08:30:29.020Z,44.25
2023-04-15T08:31:29.045Z,44.43
2023-04-15T08:32:29.091Z,43.63
2023-04-15T08:33:28.966Z,44.92
2023-04-15T08:34:28.942Z,43.54
2023-04-15T08:35:28.915Z,43.70
2023-04-15T08:36:28.883Z,43.95
2023-04-15T08:37:28.870Z,43.82
2023-04-15T08:38:28.873Z,43.91
2023-04-15T08:39:28.846Z,45.07
2023-04-15T08:40:28.839Z,43.98
2023-04-15T08:41:28.832Z,43.92
2023-04-15T08:42:28.816Z,43.88
2023-04-15T08:43:28.849Z,43.94
2023-04-15T08:44:28.841Z,44.04
2023-04-15T08:45:28.865Z,44.41
2023-04-15T08:46:28.894Z,44.26
2023-04-15T08:47:28.934Z,43.55
2023-04-15T08:48:28.957Z,44.43
2023-04-15T08:49:28.975Z,43.77
2023-04-15T08:50:29.005Z,43.31
2023-04-15T08:51:29.006Z,44.02
2023-04-15T08:52:29.005Z,42.89
2023-04-15T08:53:29.015Z,42.95
2023-04-15T08:54:28.977Z,43.41
2023-04-15T08:55:28.970Z,42.27
2023-04-15T08:56:29.018Z,42.04
2023-04-15T08:57:29.016Z,42.16
2023-04-15T08:58:29.026Z,42.81
2023-04-15T08:59:29.041Z,42.71
2023-04-15T09:00:29.038Z,41.89
2023-04-15T09:01:29.079Z,42.80
2023-04-15T09:02:29.121Z,42.72
2023-04-15T09:03:29.142Z,42.72
2023-04-15T09:04:29.116Z,42.01
2023-04-15T09:05:29.087Z,42.45
2023-04-15T09:06:29.088Z,42.35
2023-04-15T09:07:29.100Z,42.31
2023-04-15T09:08:29.125Z,41.78
2023-04-15T09:09:29.165Z,41.68
2023-04-15T09:10:29.174Z,41.84
2023-04-15T09:11:29.230Z,42.89
2023-04-15T09:12:29.212Z,42.07
2023-04-15T09:13:29.253Z,42.08
2023-04-15T09:14:29.282Z,42.42
2023-04-15T09:15:29.323Z,41.80
2023-04-15T09:16:29.333Z,42.06
2023-04-15T09:17:29.320Z,41.13
2023-04-15T09:18:29.285Z,41.21
2023-04-15T09:19:29.261Z,41.37
2023-04-15T09:20:29.248Z,40.62
2023-04-15T09:21:29.232Z,40.99
2023-04-15T09:22:29.223Z,40.67
2023-04-15T09:23:29.194Z,40.35
2023-04-15T09:24:29.185Z,39.28
2023-04-15T09:25:29.162Z,40.51
2023-04-15T09:26:29.150Z,39.43
2023-04-15T09:27:29.130Z,38.98
2023-04-15T09:28:29.104Z,39.63
2023-04-15T09:29:29.079Z,40.67
2023-04-15T09:30:29.098Z,38.43
2023-04-15T09:31:29.031Z,37.61
2023-04-15T09:32:29.079Z,38.16
2023-04-15T09:33:28.942Z,37.99
2023-04-15T09:34:28.916Z,38.06
2023-04-15T09:35:28.885Z,38.46
2023-04-15T09:36:28.826Z,38.20
2023-04-15T09:37:32.496Z,38.88
2023-04-15T09:38:28.728Z,39.38
2023-04-15T09:39:28.681Z,39.06
2023-04-15T09:40:28.629Z,38.89
2023-04-15T09:41:28.636Z,38.40
2023-04-15T09:42:28.530Z,38.24
2023-04-15T09:43:28.492Z,38.39
2023-04-15T09:44:28.436Z,38.56
2023-04-15T09:45:29.510Z,38.45
2023-04-15T09:46:28.379Z,38.26
2023-04-15T09:47:28.353Z,38.97
2023-04-15T09:48:28.256Z,37.89
2023-04-15T09:49:28.244Z,39.04
2023-04-15T09:50:28.175Z,38.39
2023-04-15T09:51:28.132Z,38.93
2023-04-15T09:52:28.084Z,38.46
2023-04-15T09:53:29.346Z,38.44
2023-04-15T09:54:27.993Z,39.31
2023-04-15T09:55:27.962Z,38.73
2023-04-15T09:56:27.890Z,38.37
2023-04-15T09:57:27.843Z,38.25
2023-04-15T09:58:27.790Z,38.74
2023-04-15T09:59:27.741Z,38.64
2023-04-15T10:00:27.703Z,39.55
2023-04-15T10:01:27.664Z,40.10
2023-04-15T10:02:27.657Z,40.36
2023-04-15T10:03:27.756Z,39.71
2023-04-15T10:04:27.553Z,39.47
2023-04-15T10:05:28.012Z,38.81
2023-04-15T10:06:27.611Z,39.44
2023-04-15T10:07:27.583Z,38.68
2023-04-15T10:08:27.566Z,38.88
2023-04-15T10:09:27.537Z,38.31
2023-04-15T10:10:27.534Z,38.54
2023-04-15T10:11:28.657Z,38.42
2023-04-15T10:12:27.469Z,38.61
2023-04-15T10:13:27.424Z,38.97
2023-04-15T10:14:27.366Z,40.06
2023-04-15T10:15:27.328Z,39.94
2023-04-15T10:16:27.474Z,39.34
2023-04-15T10:17:27.686Z,39.21
2023-04-15T10:18:27.180Z,40.17
2023-04-15T10:19:27.148Z,39.57
2023-04-15T10:20:27.114Z,39.68
2023-04-15T10:21:27.058Z,39.64
2023-04-15T10:22:27.018Z,39.44
2023-04-15T10:23:26.977Z,39.27
2023-04-15T10:24:26.936Z,38.80
2023-04-15T10:25:26.899Z,38.76
2023-04-15T10:26:26.853Z,38.97
2023-04-15T10:27:26.840Z,38.58
2023-04-15T10:28:26.854Z,38.85
2023-04-15T10:29:26.889Z,39.50
2023-04-15T10:30:26.916Z,39.83
2023-04-15T10:31:26.971Z,39.90
2023-04-15T10:32:27.008Z,40.23
2023-04-15T10:33:27.006Z,40.35
2023-04-15T10:34:27.026Z,40.35
2023-04-15T10:35:27.090Z,39.88
2023-04-15T10:36:27.021Z,40.31
2023-04-15T10:37:27.033Z,39.62
2023-04-15T10:38:27.050Z,40.30
2023-04-15T10:39:27.126Z,39.03
2023-04-15T10:40:27.108Z,38.62
2023-04-15T10:41:27.123Z,39.49
2023-04-15T10:42:27.132Z,40.09
2023-04-15T10:43:27.079Z,39.79
2023-04-15T10:44:27.035Z,39.43
2023-04-15T10:45:27.009Z,39.00
2023-04-15T10:46:27.004Z,39.04
2023-04-15T10:47:26.970Z,39.52
2023-04-15T10:48:26.909Z,41.39
2023-04-15T10:49:26.927Z,40.30
2023-04-15T10:50:26.942Z,40.82
2023-04-15T10:51:26.960Z,40.83
2023-04-15T10:52:26.916Z,41.04
2023-04-15T10:53:26.900Z,41.23
2023-04-15T10:54:26.885Z,40.64
2023-04-15T10:55:26.900Z,40.93
2023-04-15T10:56:26.890Z,41.60
2023-04-15T10:57:26.853Z,44.21
2023-04-15T10:58:26.834Z,43.69
2023-04-15T10:59:26.848Z,46.00
2023-04-15T11:00:26.885Z,44.92
2023-04-15T11:01:26.896Z,47.60
2023-04-15T11:02:27.009Z,45.75
2023-04-15T11:03:27.042Z,44.99
2023-04-15T11:04:27.061Z,45.04
2023-04-15T11:05:26.997Z,47.52
2023-04-15T11:06:27.013Z,49.96
2023-04-15T11:07:27.060Z,50.38
2023-04-15T11:08:27.044Z,48.97
2023-04-15T11:09:27.079Z,48.47
2023-04-15T11:10:27.102Z,47.10
2023-04-15T11:11:27.122Z,46.23
2023-04-15T11:12:27.138Z,45.71
2023-04-15T11:13:27.172Z,46.24
2023-04-15T11:14:27.201Z,46.84
2023-04-15T11:15:27.257Z,46.31
2023-04-15T11:16:27.289Z,46.30
2023-04-15T11:17:27.379Z,46.32
2023-04-15T11:18:27.274Z,44.98
2023-04-15T11:19:27.254Z,45.24
2023-04-15T11:20:27.258Z,43.05
2023-04-15T11:21:27.254Z,44.50
2023-04-15T11:22:27.288Z,44.72
2023-04-15T11:23:27.352Z,44.18
2023-04-15T11:24:27.374Z,45.47
2023-04-15T11:25:27.379Z,49.68
2023-04-15T11:26:27.411Z,49.92
2023-04-15T11:27:27.422Z,51.78
2023-04-15T11:28:27.465Z,50.61
2023-04-15T11:29:27.525Z,51.80
2023-04-15T11:30:27.562Z,52.56
2023-04-15T11:31:27.675Z,51.99
2023-04-15T11:32:27.706Z,49.95
2023-04-15T11:33:27.762Z,50.54
2023-04-15T11:34:27.831Z,50.04
2023-04-15T11:35:27.901Z,51.52
2023-04-15T11:36:27.981Z,51.32
2023-04-15T11:37:27.972Z,50.03
2023-04-15T11:38:28.035Z,50.80
2023-04-15T11:39:28.111Z,51.07
2023-04-15T11:40:28.147Z,50.95
2023-04-15T11:41:28.203Z,51.21
2023-04-15T11:42:39.251Z,53.31
2023-04-15T11:43:28.260Z,53.40
2023-04-15T11:44:28.266Z,55.64
2023-04-15T11:45:28.325Z,55.62
2023-04-15T11:46:28.301Z,56.26
2023-04-15T11:47:28.325Z,57.38
2023-04-15T11:48:28.324Z,57.78
2023-04-15T11:49:28.327Z,56.49
2023-04-15T11:50:28.352Z,55.34
2023-04-15T11:51:28.365Z,56.24
2023-04-15T11:52:28.396Z,55.20
2023-04-15T11:53:28.412Z,54.67
2023-04-15T11:54:28.435Z,54.98
2023-04-15T11:55:28.860Z,54.86
2023-04-15T11:56:28.462Z,56.28
2023-04-15T11:57:28.486Z,55.69
2023-04-15T11:58:28.470Z,56.88
2023-04-15T11:59:39.029Z,55.54
2023-04-15T12:00:28.499Z,56.07
2023-04-15T12:01:28.517Z,54.62
2023-04-15T12:02:28.653Z,55.12
2023-04-15T12:03:28.766Z,55.76
2023-04-15T12:04:28.822Z,57.35
2023-04-15T12:05:28.654Z,57.46
2023-04-15T12:06:28.680Z,59.24
2023-04-15T12:07:28.720Z,59.58
2023-04-15T12:08:28.728Z,58.35
2023-04-15T12:09:29.976Z,57.01
2023-04-15T12:10:28.754Z,58.00
2023-04-15T12:11:28.785Z,58.98
2023-04-15T12:12:28.783Z,58.04
2023-04-15T12:13:28.799Z,57.91
2023-04-15T12:14:28.832Z,58.19
2023-04-15T12:15:28.996Z,58.20
2023-04-15T12:16:28.888Z,57.68
2023-04-15T12:17:28.911Z,58.53
2023-04-15T12:18:28.915Z,60.65
2023-04-15T12:19:28.926Z,59.19
2023-04-15T12:20:28.952Z,58.21
2023-04-15T12:21:28.982Z,56.98
2023-04-15T12:22:28.999Z,55.76
2023-04-15T12:23:29.027Z,55.90
2023-04-15T12:24:29.074Z,54.58
2023-04-15T12:25:29.056Z,53.89
2023-04-15T12:26:29.089Z,54.01
2023-04-15T12:27:29.879Z,55.20
2023-04-15T12:28:29.118Z,55.19
2023-04-15T12:29:29.271Z,54.71
2023-04-15T12:30:29.171Z,54.74
2023-04-15T12:31:29.227Z,54.97
2023-04-15T12:32:29.210Z,55.57
2023-04-15T12:33:29.219Z,58.09
2023-04-15T12:34:29.238Z,58.74
2023-04-15T12:35:29.243Z,59.39
2023-04-15T12:36:29.255Z,59.69
2023-04-15T12:37:29.258Z,59.70
2023-04-15T12:38:29.279Z,59.41
2023-04-15T12:39:30.672Z,59.88
2023-04-15T12:40:29.520Z,59.49
2023-04-15T12:41:29.598Z,60.42
2023-04-15T12:42:29.690Z,60.15
2023-04-15T12:43:29.791Z,60.26
2023-04-15T12:44:29.876Z,59.70
2023-04-15T12:45:30.088Z,60.66
2023-04-15T12:46:30.062Z,61.39
2023-04-15T12:47:30.100Z,61.51
2023-04-15T12:48:30.162Z,61.23
2023-04-15T12:49:30.218Z,62.03
2023-04-15T12:50:30.309Z,62.45
2023-04-15T12:51:30.357Z,62.01
2023-04-15T12:52:30.456Z,62.05